This is the latest recevied weather packets stored in our database for station/object F5ZMN-13. If no packets are shown the sender has not sent any weather packets the latest 10 day(s).
| Time | Temp. | Humidity | Pressure | Rain* | Wind** | Luminosity | Snow |
|---|---|---|---|---|---|---|---|
| 1787601967 | 26.67° C | 53% | 1012.2 hPa | - | - | - | - |
| 1787601352 | 26.67° C | 53% | 1012 hPa | - | - | - | - |
| 1787600737 | 26.67° C | 53% | 1012 hPa | - | - | - | - |
| 1787600122 | 26.67° C | 53% | 1011.8 hPa | - | - | - | - |
| 1787599508 | 26.67° C | 53% | 1011.8 hPa | - | - | - | - |
| 1787598892 | 26.67° C | 53% | 1011.4 hPa | - | - | - | - |
| 1787598277 | 26.11° C | 53% | 1011.1 hPa | - | - | - | - |
| 1787597662 | 26.11° C | 53% | 1010.9 hPa | - | - | - | - |
| 1787597047 | 26.11° C | 53% | 1010.5 hPa | - | - | - | - |
| 1787596432 | 25.56° C | 52% | 1010.1 hPa | - | - | - | - |
| 1787595817 | 26.11° C | 55% | 1009.9 hPa | - | - | - | - |
| 1787595202 | 26.11° C | 55% | 1009.7 hPa | - | - | - | - |
| 1787594587 | 25.56° C | 47% | 1009.6 hPa | - | - | - | - |
| 1787593972 | 25.56° C | 45% | 1009.7 hPa | - | - | - | - |
| 1787593358 | 26.11° C | 44% | 1009.6 hPa | - | - | - | - |
| 1787592742 | 26.11° C | 43% | 1009.6 hPa | - | - | - | - |
| 1787592127 | 26.67° C | 44% | 1009.5 hPa | - | - | - | - |
| 1787591512 | 26.67° C | 47% | 1009.4 hPa | - | - | - | - |
| 1787590897 | 26.67° C | 46% | 1009.5 hPa | - | - | - | - |
| 1787590282 | 26.67° C | 48% | 1009.3 hPa | - | - | - | - |
| 1787589666 | 27.22° C | 50% | 1009.2 hPa | - | - | - | - |
| 1787589051 | 26.67° C | 49% | 1009.2 hPa | - | - | - | - |
| 1787588436 | 26.67° C | 46% | 1009.2 hPa | - | - | - | - |
| 1787587821 | 26.11° C | 44% | 1009.2 hPa | - | - | - | - |
| 1787587206 | 26.11° C | 43% | 1009.1 hPa | - | - | - | - |
* Rain since midnight (hover to see other rain measurements)
** Current wind speed in m/s (hover to see current wind gust speed)